Time;durP1;ratioP1;P1;durP2;ratioP2;P2;SDS_P1;SDS_P2;PMS_P1;PMS_P2;Temp;Humidity;BMP_temperature;BMP_pressure;BME280_temperature;BME280_humidity;BME280_pressure;Samples;Min_cycle;Max_cycle;Signal;HPM_P1;HPM_P2
2021/04/06 00:02:24;;;;;;;3.33;1.50;;;1.20;81.30;;;;;;5060298;28;20020;-90
2021/04/06 00:04:52;;;;;;;4.47;1.40;;;1.20;81.70;;;;;;5077473;28;20787;-91
2021/04/06 00:07:20;;;;;;;5.18;1.02;;;1.20;81.80;;;;;;5059462;28;20087;-92
2021/04/06 00:09:54;;;;;;;3.78;1.13;;;1.10;82.70;;;;;;5059311;28;20028;-92
2021/04/06 00:12:21;;;;;;;9.07;2.20;;;1.10;82.20;;;;;;5077384;28;20051;-91
2021/04/06 00:14:51;;;;;;;5.45;1.08;;;1.00;82.40;;;;;;5077374;28;20024;-90
2021/04/06 00:17:17;;;;;;;5.40;1.15;;;1.00;82.70;;;;;;5060524;28;20059;-93
2021/04/06 00:19:45;;;;;;;5.38;1.20;;;1.00;82.90;;;;;;5058969;28;20067;-92
2021/04/06 00:22:14;;;;;;;4.80;1.10;;;0.90;83.10;;;;;;5060380;28;20413;-89
2021/04/06 00:24:43;;;;;;;5.25;1.35;;;0.90;83.30;;;;;;5060930;28;20025;-90
2021/04/06 00:27:22;;;;;;;3.90;1.60;;;0.90;83.50;;;;;;5059088;28;20055;-90
2021/04/06 00:29:54;;;;;;;4.00;1.08;;;0.80;83.80;;;;;;5058245;28;20028;-90
2021/04/06 00:32:21;;;;;;;2.42;1.42;;;0.80;84.00;;;;;;5055112;28;20081;-90
2021/04/06 00:34:51;;;;;;;4.82;1.40;;;0.80;84.30;;;;;;5054048;28;20074;-90
2021/04/06 00:37:18;;;;;;;7.38;1.80;;;0.80;84.60;;;;;;5056878;28;20029;-89
2021/04/06 00:39:44;;;;;;;4.50;0.90;;;0.70;84.80;;;;;;5045716;28;20033;-91
2021/04/06 00:42:17;;;;;;;2.88;1.10;;;0.70;85.00;;;;;;5051467;28;20120;-90
2021/04/06 00:44:54;;;;;;;5.90;1.30;;;0.70;85.10;;;;;;5036275;28;20027;-90
2021/04/06 00:47:25;;;;;;;3.10;1.20;;;0.70;85.30;;;;;;5051150;28;20033;-90
2021/04/06 00:49:53;;;;;;;;;;;0.70;85.60;;;;;;5051277;28;20030;-89
2021/04/06 00:52:18;;;;;;;4.47;1.30;;;0.60;85.70;;;;;;5035146;28;19909;-90
2021/04/06 00:54:51;;;;;;;8.57;1.30;;;0.60;85.90;;;;;;5034874;28;20374;-89
2021/04/06 00:57:17;;;;;;;5.32;1.10;;;0.60;86.20;;;;;;5036164;28;20034;-90
2021/04/06 01:00:10;;;;;;;3.10;1.00;;;0.50;86.40;;;;;;5052450;28;20048;-90
2021/04/06 01:02:36;;;;;;;4.50;1.30;;;0.50;86.80;;;;;;5036260;28;20026;-90
2021/04/06 01:05:07;;;;;;;5.72;1.10;;;0.50;87.10;;;;;;5036317;28;20112;-89
2021/04/06 01:07:36;;;;;;;8.90;1.23;;;0.50;87.30;;;;;;5035888;28;20056;-90
2021/04/06 01:10:06;;;;;;;4.85;1.40;;;0.50;87.40;;;;;;5035726;28;20025;-90
2021/04/06 01:12:32;;;;;;;5.47;1.55;;;0.50;87.60;;;;;;5052813;28;20029;-90
2021/04/06 01:14:58;;;;;;;4.10;1.13;;;0.40;88.00;;;;;;5052915;28;20467;-92
2021/04/06 01:17:29;;;;;;;5.63;1.10;;;0.40;88.30;;;;;;5052895;28;20140;-90
2021/04/06 01:19:58;;;;;;;3.65;1.00;;;0.40;88.60;;;;;;5052648;28;20525;-92
2021/04/06 01:22:26;;;;;;;6.85;1.10;;;0.40;88.90;;;;;;5050291;28;20080;-91
2021/04/06 01:24:52;;;;;;;3.92;0.90;;;0.30;89.10;;;;;;5049976;28;20025;-92
2021/04/06 01:27:19;;;;;;;3.75;1.48;;;0.30;89.50;;;;;;5049591;28;20034;-91
2021/04/06 01:29:55;;;;;;;3.95;1.40;;;0.30;89.90;;;;;;5050046;28;20120;-92
2021/04/06 01:32:23;;;;;;;7.53;0.98;;;0.20;90.10;;;;;;5050952;28;20022;-90
2021/04/06 01:34:49;;;;;;;5.78;0.98;;;0.20;90.20;;;;;;5034782;28;20167;-90
2021/04/06 01:37:25;;;;;;;4.00;0.90;;;0.20;90.30;;;;;;5035544;28;20026;-91
2021/04/06 01:39:55;;;;;;;3.58;0.95;;;0.20;90.80;;;;;;5035885;28;20490;-91
2021/04/06 01:42:22;;;;;;;6.97;1.33;;;0.20;90.60;;;;;;5049711;28;20159;-91
2021/04/06 01:44:50;;;;;;;5.65;1.10;;;0.20;90.80;;;;;;5034588;28;20033;-90
2021/04/06 01:47:17;;;;;;;9.27;1.30;;;0.10;90.90;;;;;;5037808;28;20084;-91
2021/04/06 01:49:46;;;;;;;13.48;4.15;;;0.20;91.10;;;;;;5037558;28;20029;-88
2021/04/06 01:52:13;;;;;;;3.53;0.93;;;0.10;91.20;;;;;;5052851;28;20506;-90
2021/04/06 01:54:41;;;;;;;5.55;1.20;;;0.10;91.30;;;;;;5037270;28;20057;-90
2021/04/06 01:57:14;;;;;;;5.30;1.13;;;0.10;91.50;;;;;;5037257;28;20037;-91
2021/04/06 01:59:51;;;;;;;6.93;1.35;;;0.10;91.60;;;;;;5051486;28;20029;-91
2021/04/06 02:02:16;;;;;;;5.65;0.90;;;0.10;91.80;;;;;;5049686;28;20040;-91
2021/04/06 02:04:44;;;;;;;6.35;1.17;;;0.10;91.90;;;;;;5049553;28;20033;-90
2021/04/06 02:07:13;;;;;;;3.88;1.40;;;0.10;92.10;;;;;;5049767;28;20048;-92
2021/04/06 02:09:40;;;;;;;5.15;0.90;;;0.10;92.20;;;;;;5049721;28;20040;-90
2021/04/06 02:12:06;;;;;;;7.47;1.15;;;0.10;92.30;;;;;;5050213;28;20048;-91
2021/04/06 02:14:32;;;;;;;7.88;1.05;;;0.10;92.50;;;;;;5051014;28;20026;-91
2021/04/06 02:17:06;;;;;;;7.65;1.42;;;0.20;92.60;;;;;;5050642;28;20067;-91
2021/04/06 02:19:37;;;;;;;4.35;1.25;;;0.10;92.80;;;;;;5054604;28;20036;-91
2021/04/06 02:22:04;;;;;;;;;;;0.20;93.00;;;;;;5053677;28;20067;-91
2021/04/06 02:24:36;;;;;;;5.50;1.30;;;0.20;93.10;;;;;;5060314;28;19905;-91
2021/04/06 02:27:08;;;;;;;6.45;1.17;;;0.10;93.30;;;;;;5066047;28;20051;-91
2021/04/06 02:29:47;;;;;;;8.40;1.48;;;0.20;93.40;;;;;;5058617;28;20040;-91
2021/04/06 02:32:18;;;;;;;5.88;0.93;;;0.10;93.50;;;;;;5069102;28;20020;-90
2021/04/06 02:34:46;;;;;;;5.60;2.55;;;0.10;93.60;;;;;;5056202;28;20065;-91
2021/04/06 02:37:16;;;;;;;4.53;1.50;;;0.10;93.70;;;;;;5063165;28;20039;-90
2021/04/06 02:39:43;;;;;;;4.65;1.60;;;0.10;93.80;;;;;;5060691;28;20037;-93
2021/04/06 02:42:20;;;;;;;2.72;0.90;;;0.10;94.00;;;;;;5051706;28;20036;-91
2021/04/06 02:44:46;;;;;;;6.57;1.10;;;0.10;94.10;;;;;;5068714;28;20063;-91
2021/04/06 02:47:12;;;;;;;5.47;0.85;;;0.00;94.20;;;;;;5052327;28;20113;-91
2021/04/06 02:49:38;;;;;;;4.22;1.80;;;0.10;94.30;;;;;;5049034;28;20084;-92
2021/04/06 02:52:04;;;;;;;3.70;0.88;;;0.10;94.40;;;;;;5047329;28;20037;-91
2021/04/06 02:54:31;;;;;;;4.30;0.95;;;0.10;94.50;;;;;;5037160;28;20107;-90
2021/04/06 02:56:57;;;;;;;6.93;1.10;;;0.10;94.70;;;;;;5038065;28;20079;-91
2021/04/06 02:59:22;;;;;;;7.38;1.10;;;0.00;94.70;;;;;;5037458;28;20029;-91
2021/04/06 03:01:50;;;;;;;3.15;1.05;;;0.10;94.80;;;;;;5053336;28;20116;-91
2021/04/06 03:04:27;;;;;;;6.22;1.63;;;0.00;94.90;;;;;;5036730;28;20033;-90
2021/04/06 03:06:55;;;;;;;4.90;0.98;;;0.10;95.00;;;;;;5039877;28;20386;-89
2021/04/06 03:09:21;;;;;;;9.63;1.20;;;0.00;95.10;;;;;;5060727;28;20033;-88
2021/04/06 03:11:50;;;;;;;10.25;0.98;;;0.00;95.20;;;;;;5039880;28;20025;-91
2021/04/06 03:14:16;;;;;;;5.97;0.88;;;0.00;95.30;;;;;;5039170;28;20103;-90
2021/04/06 03:16:42;;;;;;;2.40;0.95;;;0.00;95.50;;;;;;5035753;28;20108;-89
2021/04/06 03:19:08;;;;;;;5.47;1.02;;;0.00;95.60;;;;;;5053516;28;20486;-91
2021/04/06 03:21:34;;;;;;;8.10;0.90;;;0.00;95.80;;;;;;5036806;28;20056;-91
2021/04/06 03:24:01;;;;;;;7.03;1.65;;;0.00;96.00;;;;;;5051145;28;20393;-91
2021/04/06 03:26:28;;;;;;;4.85;1.02;;;0.00;96.20;;;;;;5051067;28;20025;-91
2021/04/06 03:29:00;;;;;;;6.93;1.27;;;0.00;96.30;;;;;;5051371;28;20474;-91
2021/04/06 03:31:33;;;;;;;3.13;1.10;;;-0.10;96.50;;;;;;5051583;28;20490;-90
2021/04/06 03:34:00;;;;;;;8.60;1.55;;;0.00;96.70;;;;;;5051650;28;20025;-90
2021/04/06 03:36:29;;;;;;;3.88;0.70;;;-0.10;97.00;;;;;;5052465;28;20029;-90
2021/04/06 03:38:57;;;;;;;5.18;1.20;;;-0.10;97.20;;;;;;5052167;28;20025;-90
2021/04/06 03:41:25;;;;;;;6.70;1.50;;;-0.10;97.50;;;;;;5051786;28;20025;-90
2021/04/06 03:43:52;;;;;;;7.63;1.10;;;-0.10;98.00;;;;;;5051987;28;20029;-91
2021/04/06 03:46:23;;;;;;;3.78;1.02;;;-0.10;98.30;;;;;;5035485;28;20033;-91
2021/04/06 03:48:50;;;;;;;;;;;-0.10;98.50;;;;;;5052228;28;20428;-91
2021/04/06 03:51:25;;;;;;;6.32;1.10;;;-0.10;98.60;;;;;;5052154;28;20015;-90
2021/04/06 03:53:51;;;;;;;6.20;1.25;;;-0.10;98.80;;;;;;5050967;28;20028;-90
2021/04/06 03:56:17;;;;;;;9.15;1.38;;;-0.10;98.80;;;;;;5050813;28;20044;-89
2021/04/06 03:58:59;;;;;;;3.85;1.00;;;-0.10;98.90;;;;;;5054205;28;20123;-90
2021/04/06 04:01:26;;;;;;;7.63;1.40;;;-0.20;98.90;;;;;;5051458;28;20029;-92
2021/04/06 04:03:53;;;;;;;7.22;1.30;;;-0.20;99.10;;;;;;5051363;28;20032;-91
2021/04/06 04:06:26;;;;;;;2.78;1.20;;;-0.20;99.20;;;;;;5051268;28;20167;-90
2021/04/06 04:08:52;;;;;;;6.70;1.42;;;-0.30;99.30;;;;;;5053077;28;20040;-91
2021/04/06 04:11:19;;;;;;;3.30;0.80;;;-0.30;99.50;;;;;;5053040;28;20028;-91
2021/04/06 04:13:45;;;;;;;7.13;0.95;;;-0.30;99.50;;;;;;5051878;28;20028;-91
2021/04/06 04:16:10;;;;;;;1.13;0.63;;;-0.30;99.60;;;;;;5051066;28;20048;-88
2021/04/06 04:18:36;;;;;;;6.93;1.17;;;-0.40;99.70;;;;;;5050992;28;20032;-91
2021/04/06 04:21:03;;;;;;;7.43;0.85;;;-0.30;99.70;;;;;;5051652;28;20037;-88
2021/04/06 04:23:29;;;;;;;7.38;2.08;;;-0.30;99.70;;;;;;5052874;28;20033;-90
2021/04/06 04:25:55;;;;;;;6.97;1.23;;;-0.30;99.70;;;;;;5055795;28;20470;-91
2021/04/06 04:28:20;;;;;;;3.60;1.33;;;-0.40;99.80;;;;;;5055086;28;20090;-89
2021/04/06 04:30:52;;;;;;;3.78;1.27;;;-0.30;99.90;;;;;;5055049;28;20039;-90
2021/04/06 04:33:18;;;;;;;3.38;1.00;;;-0.30;99.90;;;;;;5056152;28;20494;-92
2021/04/06 04:35:44;;;;;;;2.38;0.80;;;-0.30;99.90;;;;;;5055624;28;20094;-90
2021/04/06 04:38:10;;;;;;;9.75;1.25;;;-0.30;99.90;;;;;;5056415;28;20029;-90
2021/04/06 04:40:40;;;;;;;4.55;0.88;;;-0.30;99.90;;;;;;5057908;28;20033;-90
2021/04/06 04:43:06;;;;;;;5.47;0.98;;;-0.30;99.90;;;;;;5058883;28;20024;-91
2021/04/06 04:45:31;;;;;;;5.53;0.80;;;-0.30;99.90;;;;;;5058945;28;20024;-90
2021/04/06 04:47:57;;;;;;;4.85;1.10;;;-0.30;99.80;;;;;;5058358;28;20025;-89
2021/04/06 04:50:23;;;;;;;4.70;0.70;;;-0.30;99.90;;;;;;5057924;28;20028;-90
2021/04/06 04:52:50;;;;;;;3.08;0.80;;;-0.30;99.90;;;;;;5076657;28;20033;-90
2021/04/06 04:55:18;;;;;;;3.28;0.82;;;-0.30;99.80;;;;;;5059599;28;20037;-90
2021/04/06 04:57:44;;;;;;;1.75;0.65;;;-0.30;99.80;;;;;;5077551;28;20032;-91
2021/04/06 05:00:11;;;;;;;5.90;0.80;;;-0.30;99.80;;;;;;5077638;28;20097;-90
2021/04/06 05:02:37;;;;;;;6.93;0.93;;;-0.30;99.80;;;;;;5058993;28;20032;-91
2021/04/06 05:05:04;;;;;;;3.85;0.98;;;-0.40;99.80;;;;;;5058530;28;20161;-90
2021/04/06 05:07:30;;;;;;;4.22;0.93;;;-0.40;99.80;;;;;;5058344;28;20036;-90
2021/04/06 05:09:56;;;;;;;6.15;1.00;;;-0.40;99.80;;;;;;5057382;28;20025;-89
2021/04/06 05:12:21;;;;;;;4.20;0.95;;;-0.40;99.90;;;;;;5058407;28;20059;-90
2021/04/06 05:14:47;;;;;;;3.60;0.90;;;-0.40;99.90;;;;;;5057483;28;20036;-92
2021/04/06 05:17:16;;;;;;;8.95;1.38;;;-0.50;99.90;;;;;;5055011;28;20130;-92
2021/04/06 05:19:42;;;;;;;3.35;0.95;;;-0.50;99.90;;;;;;5054602;28;20031;-90
2021/04/06 05:22:08;;;;;;;6.60;0.90;;;-0.50;99.90;;;;;;5056329;28;20058;-91
2021/04/06 05:24:34;;;;;;;3.80;0.82;;;-0.50;99.90;;;;;;5056349;28;20021;-90
2021/04/06 05:27:00;;;;;;;3.78;0.80;;;-0.50;99.90;;;;;;5053494;28;20098;-90
2021/04/06 05:29:26;;;;;;;5.53;1.25;;;-0.60;99.90;;;;;;5054643;28;20056;-91
2021/04/06 05:31:51;;;;;;;3.10;0.70;;;-0.60;99.90;;;;;;5053854;28;20048;-91
2021/04/06 05:34:17;;;;;;;4.35;0.90;;;-0.60;99.90;;;;;;5052299;28;20470;-90
2021/04/06 05:36:43;;;;;;;5.15;1.23;;;-0.60;99.90;;;;;;5052904;28;20132;-90
2021/04/06 05:39:08;;;;;;;5.35;0.90;;;-0.60;99.90;;;;;;5049659;28;20044;-90
2021/04/06 05:41:35;;;;;;;6.65;1.00;;;-0.70;99.90;;;;;;5043449;28;20037;-90
2021/04/06 05:44:03;;;;;;;1.98;1.05;;;-0.70;99.90;;;;;;5044024;28;20367;-91
2021/04/06 05:46:31;;;;;;;3.22;0.90;;;-0.70;99.90;;;;;;5047018;28;20021;-90
2021/04/06 05:49:05;;;;;;;7.03;1.15;;;-0.70;99.90;;;;;;5044706;28;20021;-91
2021/04/06 05:51:31;;;;;;;5.93;1.08;;;-0.60;99.90;;;;;;5041630;28;20021;-90
2021/04/06 05:53:57;;;;;;;9.02;1.45;;;-0.60;99.90;;;;;;5044495;28;20020;-90
2021/04/06 05:56:23;;;;;;;6.75;0.93;;;-0.60;99.90;;;;;;5041489;28;20037;-90
2021/04/06 05:58:48;;;;;;;5.38;1.02;;;-0.70;99.90;;;;;;5042420;28;20025;-90
2021/04/06 06:01:15;;;;;;;7.18;0.98;;;-0.70;99.90;;;;;;5045571;28;20028;-92
2021/04/06 06:03:41;;;;;;;3.88;0.93;;;-0.70;99.90;;;;;;5045149;28;20029;-90
2021/04/06 06:06:07;;;;;;;4.18;0.93;;;-0.70;99.90;;;;;;5052479;28;20040;-89
2021/04/06 06:08:34;;;;;;;5.40;0.90;;;-0.70;99.90;;;;;;5047729;28;20056;-90
2021/04/06 06:11:01;;;;;;;3.72;0.98;;;-0.70;99.90;;;;;;5045157;28;20048;-90
2021/04/06 06:13:29;;;;;;;9.55;1.20;;;-0.70;99.90;;;;;;5044529;28;20112;-91
2021/04/06 06:16:16;;;;;;;4.07;0.70;;;-0.70;99.90;;;;;;5040701;28;20053;-89
2021/04/06 06:19:07;;;;;;;6.45;1.05;;;-0.60;99.90;;;;;;5043463;28;20037;-90
2021/04/06 06:21:50;;;;;;;3.60;1.10;;;-0.70;99.90;;;;;;5042809;28;20039;-91
2021/04/06 06:24:25;;;;;;;6.35;0.90;;;-0.60;99.90;;;;;;5040363;28;20120;-89
2021/04/06 06:26:51;;;;;;;4.25;0.80;;;-0.60;99.90;;;;;;5042514;28;20090;-90
2021/04/06 06:29:22;;;;;;;4.43;0.68;;;-0.60;99.90;;;;;;5041960;28;20031;-91
2021/04/06 06:31:49;;;;;;;2.83;0.88;;;-0.60;99.90;;;;;;5047517;28;20044;-90
2021/04/06 06:34:35;;;;;;;5.20;0.93;;;-0.60;99.90;;;;;;5043081;28;20032;-88
2021/04/06 06:37:27;;;;;;;3.42;0.85;;;-0.60;99.90;;;;;;5045705;28;20048;-91
2021/04/06 06:39:56;;;;;;;8.52;0.90;;;-0.60;99.90;;;;;;5049888;28;20029;-89
2021/04/06 06:42:28;;;;;;;3.88;0.75;;;-0.50;99.90;;;;;;5046263;28;20024;-89
2021/04/06 06:44:54;;;;;;;1.38;0.73;;;-0.50;99.90;;;;;;5043794;28;20025;-89
2021/04/06 06:47:24;;;;;;;4.65;1.33;;;-0.50;99.90;;;;;;5042506;28;20352;-88
2021/04/06 06:49:52;;;;;;;6.72;0.80;;;-0.40;99.90;;;;;;5041999;28;20053;-88
2021/04/06 06:52:24;;;;;;;3.47;1.02;;;-0.40;99.90;;;;;;5043676;28;20022;-89
2021/04/06 06:55:00;;;;;;;4.18;0.95;;;-0.40;99.90;;;;;;5043283;28;20029;-89
2021/04/06 06:59:53;;;;;;;5.43;0.90;;;-0.30;99.90;;;;;;5021761;28;20029;-90
2021/04/06 07:02:23;;;;;;;3.10;0.75;;;-0.30;99.80;;;;;;5044758;28;20091;-90
2021/04/06 07:04:50;;;;;;;5.60;0.90;;;-0.20;99.60;;;;;;5042899;28;20032;-90
2021/04/06 07:07:16;;;;;;;5.15;0.85;;;-0.10;99.50;;;;;;5046878;28;20524;-90
2021/04/06 07:09:43;;;;;;;3.65;0.75;;;-0.10;99.40;;;;;;5046685;28;20120;-90
2021/04/06 07:12:11;;;;;;;2.92;0.63;;;0.00;99.00;;;;;;5036418;28;20057;-89
2021/04/06 07:14:39;;;;;;;3.05;0.60;;;0.00;98.80;;;;;;5048187;28;20021;-90
2021/04/06 07:17:06;;;;;;;2.67;0.75;;;0.10;98.60;;;;;;5046781;28;20050;-89
2021/04/06 07:19:35;;;;;;;5.80;0.55;;;0.10;98.20;;;;;;5044450;28;20290;-90
2021/04/06 07:22:03;;;;;;;4.03;0.80;;;0.20;98.00;;;;;;5036186;28;20032;-89
2021/04/06 07:24:35;;;;;;;2.78;0.75;;;0.30;97.80;;;;;;5036314;28;20108;-90
2021/04/06 07:27:20;;;;;;;3.95;1.00;;;0.40;97.50;;;;;;5034351;28;20064;-90
2021/04/06 07:29:46;;;;;;;2.22;0.65;;;0.50;97.20;;;;;;5034338;28;20095;-88
2021/04/06 07:32:14;;;;;;;1.95;0.70;;;0.60;96.90;;;;;;5057245;28;20147;-91
2021/04/06 07:34:42;;;;;;;7.28;0.85;;;0.60;96.60;;;;;;5066049;28;20024;-90
2021/04/06 07:37:08;;;;;;;4.22;0.70;;;0.70;95.90;;;;;;5062481;28;20060;-90
2021/04/06 07:39:34;;;;;;;5.30;0.85;;;0.80;95.60;;;;;;5061516;28;20028;-91
2021/04/06 07:42:00;;;;;;;2.45;0.68;;;0.90;95.20;;;;;;5044459;28;20029;-92
2021/04/06 07:44:26;;;;;;;4.35;0.68;;;0.90;94.00;;;;;;5049015;28;20025;-89
2021/04/06 07:46:53;;;;;;;4.78;0.55;;;1.00;93.30;;;;;;5050754;28;20057;-89
2021/04/06 07:49:21;;;;;;;3.50;0.88;;;1.10;93.20;;;;;;5042647;28;20047;-89
2021/04/06 07:51:47;;;;;;;0.75;0.30;;;1.20;92.60;;;;;;5046660;28;20032;-89
2021/04/06 07:54:40;;;;;;;0.70;0.22;;;1.30;92.00;;;;;;5043005;28;20455;-92
2021/04/06 07:57:06;;;;;;;9.43;1.50;;;1.30;90.80;;;;;;5033548;28;20041;-90
2021/04/06 07:59:34;;;;;;;2.83;0.50;;;1.40;90.40;;;;;;5054278;28;20035;-90
2021/04/06 08:02:01;;;;;;;4.40;0.75;;;1.50;90.30;;;;;;5053002;28;20165;-93
2021/04/06 08:04:48;;;;;;;1.98;0.52;;;1.50;90.00;;;;;;5054987;28;20095;-92
2021/04/06 08:07:19;;;;;;;2.42;0.82;;;1.60;89.20;;;;;;5058643;28;20025;-91
2021/04/06 08:09:49;;;;;;;0.90;0.70;;;1.70;88.40;;;;;;5050032;28;20150;-92
2021/04/06 08:12:30;;;;;;;3.55;0.60;;;1.70;88.00;;;;;;5047860;28;20043;-93
2021/04/06 08:15:08;;;;;;;2.13;0.60;;;1.80;87.80;;;;;;5053079;28;20029;-91
2021/04/06 08:17:33;;;;;;;5.18;0.65;;;1.90;87.10;;;;;;5054763;28;20498;-91
2021/04/06 08:20:08;;;;;;;1.50;0.43;;;1.90;86.20;;;;;;5054437;28;20054;-92
2021/04/06 08:22:43;;;;;;;2.22;0.70;;;2.00;86.00;;;;;;5054598;28;20040;-91
2021/04/06 08:25:24;;;;;;;2.78;1.25;;;2.10;86.00;;;;;;5051960;28;20034;-92
2021/04/06 08:27:52;;;;;;;2.83;1.30;;;2.20;85.90;;;;;;5037803;28;20078;-92
2021/04/06 08:30:27;;;;;;;4.88;0.63;;;2.20;85.80;;;;;;5042554;28;20021;-92
2021/04/06 08:32:58;;;;;;;6.72;1.17;;;2.30;85.40;;;;;;5044859;28;20063;-90
2021/04/06 08:35:45;;;;;;;1.67;0.65;;;2.40;85.20;;;;;;5053328;28;20037;-92
2021/04/06 08:38:37;;;;;;;3.05;0.65;;;2.60;84.40;;;;;;5055297;28;20143;-91
2021/04/06 08:41:13;;;;;;;3.25;0.77;;;2.60;84.10;;;;;;5048044;28;20037;-92
2021/04/06 08:43:39;;;;;;;7.03;2.75;;;2.70;82.20;;;;;;5047010;28;20049;-90
2021/04/06 08:46:10;;;;;;;4.10;1.10;;;2.90;81.90;;;;;;5045332;28;20497;-91
2021/04/06 08:48:51;;;;;;;4.50;1.50;;;3.00;80.80;;;;;;5042492;28;20017;-90
2021/04/06 08:51:30;;;;;;;4.03;2.05;;;3.10;79.30;;;;;;5044904;28;20033;-92
2021/04/06 08:54:10;;;;;;;6.40;1.13;;;3.20;77.60;;;;;;5035583;28;20113;-90
2021/04/06 08:56:55;;;;;;;4.30;0.80;;;3.30;76.50;;;;;;5035136;28;20037;-91
2021/04/06 08:59:32;;;;;;;3.65;0.80;;;3.50;75.60;;;;;;5041006;28;20272;-91
2021/04/06 09:02:00;;;;;;;1.77;0.60;;;3.50;75.50;;;;;;5042024;28;20048;-91
2021/04/06 09:04:37;;;;;;;1.08;0.57;;;3.70;75.60;;;;;;5040550;28;20033;-92
2021/04/06 09:07:24;;;;;;;2.45;0.47;;;3.80;74.80;;;;;;5041489;28;20033;-91
2021/04/06 09:10:03;;;;;;;1.42;0.50;;;3.90;73.30;;;;;;5046179;28;20441;-90
2021/04/06 09:12:30;;;;;;;1.65;0.40;;;4.00;72.50;;;;;;5047563;28;20064;-91
2021/04/06 09:14:56;;;;;;;2.17;0.98;;;4.10;72.20;;;;;;5048713;28;20034;-91
2021/04/06 09:17:31;;;;;;;4.68;1.10;;;4.30;71.70;;;;;;5053831;28;20386;-91
2021/04/06 09:19:58;;;;;;;1.95;0.40;;;4.40;71.30;;;;;;5054687;28;20025;-90
2021/04/06 09:22:24;;;;;;;1.60;0.68;;;4.50;69.50;;;;;;5035424;28;20064;-91
2021/04/06 09:24:49;;;;;;;4.90;0.90;;;4.60;68.80;;;;;;5036934;28;20053;-91
2021/04/06 09:27:15;;;;;;;3.42;1.80;;;4.70;68.20;;;;;;5033979;28;20540;-91
2021/04/06 09:29:43;;;;;;;4.30;1.50;;;4.80;67.10;;;;;;5042031;28;20091;-91
2021/04/06 09:32:18;;;;;;;5.63;0.68;;;4.90;66.40;;;;;;5036549;28;20479;-91
2021/04/06 09:34:47;;;;;;;2.47;0.60;;;5.00;65.80;;;;;;5044012;28;20031;-91
2021/04/06 09:37:15;;;;;;;2.22;0.82;;;5.10;65.30;;;;;;5039418;28;20135;-92
2021/04/06 09:39:45;;;;;;;2.67;0.63;;;5.20;64.60;;;;;;5043283;28;20025;-91
2021/04/06 09:42:13;;;;;;;1.00;0.55;;;5.40;64.20;;;;;;5051534;28;20056;-90
2021/04/06 09:44:41;;;;;;;2.40;0.50;;;5.50;63.10;;;;;;5047780;28;20069;-91
2021/04/06 09:47:10;;;;;;;1.75;0.40;;;5.60;62.50;;;;;;5052581;28;20033;-90
2021/04/06 09:49:39;;;;;;;1.85;0.52;;;5.70;62.00;;;;;;5050010;28;20037;-91
2021/04/06 09:52:13;;;;;;;0.95;0.35;;;5.90;61.80;;;;;;5041910;28;20025;-91
2021/04/06 09:54:58;;;;;;;2.90;0.52;;;6.00;60.10;;;;;;5042991;28;20032;-91
2021/04/06 09:57:25;;;;;;;4.82;1.45;;;6.10;60.10;;;;;;5046824;28;20037;-90
2021/04/06 09:59:56;;;;;;;1.52;0.50;;;6.20;60.30;;;;;;5044570;28;20041;-90
2021/04/06 10:02:24;;;;;;;4.35;0.43;;;6.50;60.40;;;;;;5045054;28;20033;-93
2021/04/06 10:04:51;;;;;;;2.67;0.43;;;6.60;59.80;;;;;;5044359;28;20030;-91
2021/04/06 10:07:32;;;;;;;4.45;0.50;;;6.70;59.40;;;;;;5048798;28;20032;-91
2021/04/06 10:10:19;;;;;;;2.38;0.50;;;6.80;59.10;;;;;;5045555;28;20041;-91
2021/04/06 10:12:44;;;;;;;1.02;0.57;;;7.00;59.00;;;;;;5043318;28;20025;-90
2021/04/06 10:15:17;;;;;;;2.35;0.60;;;7.10;58.50;;;;;;5045830;28;20022;-91
2021/04/06 10:17:43;;;;;;;2.75;0.70;;;7.10;58.10;;;;;;5038847;28;20053;-91
2021/04/06 10:20:19;;;;;;;1.95;0.32;;;7.20;57.50;;;;;;5042173;28;20384;-90
2021/04/06 10:22:50;;;;;;;3.10;0.68;;;7.40;57.50;;;;;;5043773;28;20026;-91
2021/04/06 10:25:25;;;;;;;3.88;0.82;;;7.50;56.80;;;;;;5049926;28;20064;-90
2021/04/06 10:27:52;;;;;;;1.20;0.32;;;7.60;56.40;;;;;;5049320;28;20488;-92
2021/04/06 10:30:26;;;;;;;4.45;1.10;;;7.80;56.40;;;;;;5049316;28;20048;-89
2021/04/06 10:33:03;;;;;;;1.60;1.08;;;8.00;55.60;;;;;;5048490;28;20095;-89
2021/04/06 10:35:31;;;;;;;1.33;0.70;;;8.10;54.70;;;;;;5049066;28;20111;-88
2021/04/06 10:37:59;;;;;;;1.73;0.50;;;8.30;54.40;;;;;;5049454;28;20021;-90
2021/04/06 10:40:42;;;;;;;1.42;0.32;;;8.40;54.10;;;;;;5048059;28;20032;-91
2021/04/06 10:43:11;;;;;;;3.72;0.63;;;8.50;54.00;;;;;;5046152;28;20025;-91
2021/04/06 10:45:46;;;;;;;3.72;1.30;;;8.60;53.80;;;;;;5050424;28;20089;-91
2021/04/06 10:48:14;;;;;;;3.80;1.23;;;8.80;52.70;;;;;;5043005;28;20053;-90
2021/04/06 10:50:53;;;;;;;7.65;1.40;;;8.90;52.30;;;;;;5044316;28;20056;-91
2021/04/06 10:53:23;;;;;;;2.50;0.70;;;9.10;51.90;;;;;;5043946;28;20024;-90
2021/04/06 10:56:08;;;;;;;5.78;0.95;;;9.30;51.70;;;;;;5038482;28;20075;-90
2021/04/06 10:58:56;;;;;;;2.08;0.60;;;9.40;51.70;;;;;;5054643;28;20021;-90
2021/04/06 11:01:40;;;;;;;2.35;1.20;;;9.40;51.10;;;;;;5044179;28;20025;-90
2021/04/06 11:04:14;;;;;;;1.67;0.55;;;9.30;51.20;;;;;;5047753;28;20080;-89
2021/04/06 11:06:43;;;;;;;0.93;0.40;;;9.20;50.80;;;;;;5032039;28;20400;-91
2021/04/06 11:09:18;;;;;;;2.13;0.52;;;9.30;50.60;;;;;;5033692;28;20501;-91
2021/04/06 11:11:47;;;;;;;1.27;0.80;;;9.40;50.80;;;;;;5032049;28;20064;-90
2021/04/06 11:14:15;;;;;;;0.88;0.77;;;9.60;50.60;;;;;;5032462;28;20068;-90
2021/04/06 11:16:42;;;;;;;1.77;0.45;;;9.80;49.80;;;;;;5034966;28;20046;-91
2021/04/06 11:19:32;;;;;;;2.83;0.60;;;9.90;49.00;;;;;;5034500;28;20021;-91
2021/04/06 11:22:19;;;;;;;1.73;0.43;;;9.90;49.00;;;;;;5034399;28;20029;-89
2021/04/06 11:24:47;;;;;;;0.75;0.43;;;9.90;47.50;;;;;;5030362;28;20025;-89
2021/04/06 11:27:13;;;;;;;1.40;0.52;;;10.00;47.40;;;;;;5044759;28;20030;-89
2021/04/06 11:29:40;;;;;;;1.70;0.70;;;9.90;47.10;;;;;;5051218;28;20039;-90
2021/04/06 11:32:09;;;;;;;1.52;0.60;;;9.70;47.20;;;;;;5054276;28;20025;-90
2021/04/06 11:34:35;;;;;;;1.70;0.65;;;9.40;47.70;;;;;;5051906;28;20108;-89
2021/04/06 11:37:02;;;;;;;4.07;1.27;;;9.30;48.10;;;;;;5038211;28;20029;-90
2021/04/06 11:39:34;;;;;;;1.73;0.82;;;9.30;47.70;;;;;;5054130;28;20021;-90
2021/04/06 11:42:01;;;;;;;1.60;0.63;;;9.30;48.40;;;;;;5053213;28;20036;-89
2021/04/06 11:44:27;;;;;;;2.40;0.70;;;9.20;48.00;;;;;;5053545;28;20029;-88
2021/04/06 11:46:53;;;;;;;1.58;0.40;;;9.20;48.10;;;;;;5053553;28;20043;-88
2021/04/06 11:49:21;;;;;;;5.05;0.95;;;9.30;47.90;;;;;;5054371;28;20131;-89
2021/04/06 11:51:47;;;;;;;4.88;1.08;;;9.40;47.40;;;;;;5055031;28;20050;-89
2021/04/06 11:54:16;;;;;;;2.25;0.60;;;9.60;47.20;;;;;;5054782;28;20064;-89
2021/04/06 11:56:42;;;;;;;2.88;0.75;;;9.80;47.20;;;;;;5055456;28;20037;-88
2021/04/06 11:59:07;;;;;;;4.45;1.30;;;9.80;46.90;;;;;;5063351;28;20048;-89
2021/04/06 12:01:34;;;;;;;1.30;0.77;;;9.60;46.40;;;;;;5060591;28;20025;-91
2021/04/06 12:04:00;;;;;;;1.20;0.50;;;9.50;46.90;;;;;;5062691;28;20102;-89
2021/04/06 12:06:26;;;;;;;2.85;0.60;;;9.50;47.60;;;;;;5055863;28;20029;-92
2021/04/06 12:08:52;;;;;;;0.50;0.25;;;9.50;48.00;;;;;;5039464;28;20041;-90
2021/04/06 12:11:19;;;;;;;2.63;0.40;;;9.30;47.80;;;;;;5036812;28;20105;-89
2021/04/06 12:13:46;;;;;;;2.85;0.60;;;9.00;47.30;;;;;;5043180;28;20025;-89
2021/04/06 12:16:11;;;;;;;1.15;0.50;;;8.60;48.60;;;;;;5044989;28;20041;-89
2021/04/06 12:18:37;;;;;;;1.27;0.73;;;8.50;50.10;;;;;;5056276;28;20029;-89
2021/04/06 12:21:04;;;;;;;3.58;1.05;;;8.70;50.40;;;;;;5054958;28;20032;-89
2021/04/06 12:23:31;;;;;;;2.55;0.80;;;8.60;49.20;;;;;;5042893;28;20411;-90
2021/04/06 12:25:56;;;;;;;1.88;0.65;;;8.50;49.10;;;;;;5052462;28;20115;-89
2021/04/06 12:28:22;;;;;;;2.65;0.63;;;8.40;49.10;;;;;;5055466;28;20118;-89
2021/04/06 12:30:48;;;;;;;1.00;0.65;;;8.20;49.70;;;;;;5055426;28;20079;-90
2021/04/06 12:33:13;;;;;;;4.53;0.70;;;8.00;50.20;;;;;;5056646;28;20056;-89
2021/04/06 12:35:39;;;;;;;2.67;1.10;;;7.90;50.80;;;;;;5054988;28;20044;-90
2021/04/06 12:38:05;;;;;;;1.05;0.43;;;7.90;51.10;;;;;;5054927;28;20024;-89
2021/04/06 12:40:32;;;;;;;0.60;0.38;;;7.80;51.40;;;;;;5055229;28;20025;-90
2021/04/06 12:42:58;;;;;;;1.55;0.50;;;7.70;51.70;;;;;;5053153;28;20051;-92
2021/04/06 12:45:25;;;;;;;4.28;1.05;;;7.60;52.70;;;;;;5053351;28;20470;-90
2021/04/06 12:47:50;;;;;;;0.20;0.13;;;7.60;53.30;;;;;;5054248;28;20036;-90
2021/04/06 12:50:17;;;;;;;2.42;0.40;;;7.80;53.50;;;;;;5054766;28;20033;-89
2021/04/06 12:52:43;;;;;;;1.40;0.75;;;8.00;53.50;;;;;;5055325;28;20028;-89
2021/04/06 12:55:10;;;;;;;0.75;0.47;;;8.50;53.70;;;;;;5056822;28;20025;-92
2021/04/06 12:57:36;;;;;;;3.90;0.70;;;8.80;52.70;;;;;;5054242;28;20044;-90
2021/04/06 13:00:05;;;;;;;1.80;0.50;;;8.80;52.60;;;;;;5055500;28;20021;-91
2021/04/06 13:02:33;;;;;;;2.10;0.77;;;8.50;53.10;;;;;;5054815;28;20036;-90
2021/04/06 13:04:59;;;;;;;3.80;0.80;;;8.10;54.70;;;;;;5054680;28;20021;-91
2021/04/06 13:07:25;;;;;;;2.40;0.60;;;7.50;57.40;;;;;;5055577;28;20474;-92
2021/04/06 13:09:50;;;;;;;3.40;0.68;;;7.00;59.30;;;;;;5054497;28;20032;-94
2021/04/06 13:12:16;;;;;;;4.32;0.80;;;6.70;60.70;;;;;;5054184;28;20021;-91